createdAt,value
2022-08-16T00:00:22.550Z,3.58
2022-08-16T00:02:49.966Z,3.60
2022-08-16T00:05:18.765Z,3.50
2022-08-16T00:07:45.531Z,3.67
2022-08-16T00:10:21.000Z,3.47
2022-08-16T00:12:48.455Z,3.45
2022-08-16T00:15:51.512Z,3.15
2022-08-16T00:18:22.220Z,3.33
2022-08-16T00:20:56.459Z,3.38
2022-08-16T00:23:34.866Z,3.72
2022-08-16T00:26:36.291Z,3.33
2022-08-16T00:28:54.916Z,3.10
2022-08-16T00:31:24.095Z,3.47
2022-08-16T00:33:51.261Z,3.50
2022-08-16T00:36:18.039Z,3.47
2022-08-16T00:38:48.088Z,3.75
2022-08-16T00:41:14.948Z,3.55
2022-08-16T00:43:44.299Z,3.65
2022-08-16T00:46:34.675Z,3.70
2022-08-16T00:49:07.062Z,3.70
2022-08-16T00:51:44.605Z,3.75
2022-08-16T00:54:12.298Z,3.97
2022-08-16T00:56:58.342Z,3.67
2022-08-16T00:59:27.519Z,3.97
2022-08-16T01:01:54.334Z,3.55
2022-08-16T01:04:29.410Z,3.53
2022-08-16T01:07:01.182Z,3.53
2022-08-16T01:09:33.782Z,3.92
2022-08-16T01:12:02.017Z,4.28
2022-08-16T01:14:35.195Z,4.07
2022-08-16T01:17:02.030Z,4.40
2022-08-16T01:19:31.507Z,4.30
2022-08-16T01:22:48.171Z,4.32
2022-08-16T01:24:55.373Z,4.15
2022-08-16T01:27:38.579Z,3.90
2022-08-16T01:30:20.533Z,3.90
2022-08-16T01:35:36.767Z,3.65
2022-08-16T01:38:25.626Z,3.67
2022-08-16T01:40:57.662Z,3.25
2022-08-16T01:43:28.936Z,3.80
2022-08-16T01:45:59.355Z,3.50
2022-08-16T01:48:27.668Z,3.50
2022-08-16T01:51:09.116Z,3.60
2022-08-16T01:53:41.322Z,3.50
2022-08-16T01:56:23.232Z,3.53
2022-08-16T01:58:50.563Z,3.80
2022-08-16T02:01:18.373Z,3.65
2022-08-16T02:03:45.171Z,3.10
2022-08-16T02:06:33.862Z,4.00
2022-08-16T02:09:02.493Z,3.20
2022-08-16T02:11:47.704Z,3.42
2022-08-16T02:14:18.118Z,3.13
2022-08-16T02:16:48.549Z,3.28
2022-08-16T02:19:17.588Z,3.13
2022-08-16T02:22:08.585Z,3.25
2022-08-16T02:24:41.154Z,3.92
2022-08-16T02:27:09.940Z,3.33
2022-08-16T02:29:36.839Z,3.42
2022-08-16T02:32:49.115Z,3.22
2022-08-16T02:34:56.430Z,3.20
2022-08-16T02:37:23.451Z,3.35
2022-08-16T02:39:54.174Z,3.08
2022-08-16T02:42:21.222Z,3.58
2022-08-16T02:44:49.000Z,2.70
2022-08-16T02:47:25.389Z,3.03
2022-08-16T02:50:01.447Z,3.75
2022-08-16T02:52:39.545Z,3.33
2022-08-16T02:55:10.794Z,2.92
2022-08-16T02:57:38.116Z,3.22
2022-08-16T03:00:34.658Z,2.90
2022-08-16T03:02:57.871Z,3.10
2022-08-16T03:05:25.511Z,3.10
2022-08-16T03:07:58.018Z,2.58
2022-08-16T03:10:33.235Z,3.80
2022-08-16T03:13:00.686Z,2.60
2022-08-16T03:15:28.343Z,2.85
2022-08-16T03:17:55.863Z,2.60
2022-08-16T03:20:31.883Z,2.67
2022-08-16T03:22:59.554Z,2.72
2022-08-16T03:25:43.088Z,2.58
2022-08-16T03:28:11.701Z,2.63
2022-08-16T03:30:38.990Z,2.47
2022-08-16T03:33:05.827Z,2.65
2022-08-16T03:35:36.373Z,2.97
2022-08-16T03:38:33.897Z,2.80
2022-08-16T03:40:56.343Z,2.53
2022-08-16T03:43:24.228Z,2.60
2022-08-16T03:46:10.984Z,2.50
2022-08-16T03:48:39.855Z,2.30
2022-08-16T03:51:10.174Z,2.40
2022-08-16T03:53:39.592Z,2.17
2022-08-16T03:56:08.005Z,3.50
2022-08-16T03:58:48.394Z,2.58
2022-08-16T04:01:17.618Z,2.88
2022-08-16T04:03:44.424Z,2.40
2022-08-16T04:06:11.197Z,2.38
2022-08-16T04:08:39.531Z,2.45
2022-08-16T04:11:06.671Z,2.38
2022-08-16T04:14:00.996Z,2.70
2022-08-16T04:16:27.880Z,2.38
2022-08-16T04:19:02.400Z,2.60
2022-08-16T04:21:31.997Z,2.30
2022-08-16T04:24:00.642Z,2.60
2022-08-16T04:26:30.622Z,2.63
2022-08-16T04:29:17.087Z,2.72
2022-08-16T04:31:46.282Z,2.67
2022-08-16T04:34:24.909Z,2.50
2022-08-16T04:36:53.636Z,2.33
2022-08-16T04:39:23.842Z,2.55
2022-08-16T04:41:56.553Z,2.38
2022-08-16T04:44:52.498Z,2.38
2022-08-16T04:47:21.626Z,2.50
2022-08-16T04:49:52.377Z,2.60
2022-08-16T04:52:33.917Z,2.38
2022-08-16T04:55:15.346Z,2.50
2022-08-16T04:57:42.584Z,2.10
2022-08-16T05:00:32.848Z,2.60
2022-08-16T05:03:01.189Z,2.22
2022-08-16T05:05:32.762Z,2.50
2022-08-16T05:08:01.431Z,2.03
2022-08-16T05:10:48.178Z,2.47
2022-08-16T05:13:17.495Z,2.45
2022-08-16T05:15:44.299Z,2.00
2022-08-16T05:18:15.420Z,2.00
2022-08-16T05:21:01.204Z,2.38
2022-08-16T05:23:31.772Z,2.35
2022-08-16T05:25:59.790Z,2.25
2022-08-16T05:28:37.460Z,2.08
2022-08-16T05:31:18.496Z,2.30
2022-08-16T05:33:45.685Z,2.30
2022-08-16T05:36:21.037Z,2.28
2022-08-16T05:38:48.981Z,2.20
2022-08-16T05:41:16.871Z,2.50
2022-08-16T05:43:46.547Z,2.30
2022-08-16T05:46:30.331Z,2.10
2022-08-16T05:49:05.681Z,2.40
2022-08-16T05:51:39.014Z,2.10
2022-08-16T05:54:07.995Z,2.28
2022-08-16T05:56:37.561Z,2.90
2022-08-16T05:59:06.379Z,2.20
2022-08-16T06:01:38.227Z,2.50
2022-08-16T06:04:13.801Z,2.00
2022-08-16T06:06:57.411Z,2.10
2022-08-16T06:09:25.915Z,2.35
2022-08-16T06:12:10.652Z,2.30
2022-08-16T06:14:37.700Z,2.00
2022-08-16T06:17:10.271Z,2.45
2022-08-16T06:19:44.620Z,2.00
2022-08-16T06:22:38.914Z,2.08
2022-08-16T06:24:58.689Z,2.17
2022-08-16T06:27:27.401Z,2.30
2022-08-16T06:30:08.747Z,2.88
2022-08-16T06:32:38.268Z,2.10
2022-08-16T06:35:10.264Z,2.08
2022-08-16T06:37:40.495Z,1.90
2022-08-16T06:40:12.711Z,2.75
2022-08-16T06:42:47.493Z,2.08
2022-08-16T06:47:53.590Z,2.08
2022-08-16T06:50:29.705Z,1.80
2022-08-16T06:53:00.409Z,2.17
2022-08-16T06:55:33.522Z,2.20
2022-08-16T06:58:01.597Z,1.80
2022-08-16T07:00:35.041Z,2.30
2022-08-16T07:03:27.721Z,2.00
2022-08-16T07:05:52.997Z,1.60
2022-08-16T07:08:20.779Z,1.80
2022-08-16T07:10:47.640Z,1.90
2022-08-16T07:13:22.954Z,2.00
2022-08-16T07:16:02.359Z,2.10
2022-08-16T07:18:29.351Z,2.00
2022-08-16T07:21:01.829Z,2.38
2022-08-16T07:23:37.374Z,1.70
2022-08-16T07:26:10.313Z,1.85
2022-08-16T07:28:37.219Z,1.80
2022-08-16T07:31:05.059Z,2.15
2022-08-16T07:33:52.259Z,1.88
2022-08-16T07:36:22.597Z,1.92
2022-08-16T07:38:49.959Z,2.30
2022-08-16T07:41:17.180Z,2.03
2022-08-16T07:43:44.096Z,2.10
2022-08-16T07:46:39.437Z,2.10
2022-08-16T07:49:02.235Z,1.98
2022-08-16T07:51:33.137Z,2.05
2022-08-16T07:54:09.715Z,1.88
2022-08-16T07:56:37.618Z,2.00
2022-08-16T07:59:05.483Z,2.60
2022-08-16T08:01:32.322Z,2.03
2022-08-16T08:03:59.204Z,2.45
2022-08-16T08:06:28.632Z,2.30
2022-08-16T08:08:57.524Z,1.92
2022-08-16T08:11:28.180Z,2.08
2022-08-16T08:13:55.509Z,2.58
2022-08-16T08:16:30.271Z,1.75
2022-08-16T08:19:00.558Z,2.00
2022-08-16T08:22:00.189Z,2.10
2022-08-16T08:24:15.373Z,2.13
2022-08-16T08:26:42.957Z,2.25
2022-08-16T08:29:10.029Z,2.30
2022-08-16T08:31:42.111Z,1.90
2022-08-16T08:34:09.317Z,1.95
2022-08-16T08:36:40.110Z,2.28
2022-08-16T08:39:12.495Z,2.33
2022-08-16T08:41:41.557Z,2.03
2022-08-16T08:44:28.913Z,2.28
2022-08-16T08:47:00.021Z,1.98
2022-08-16T08:49:50.358Z,2.00
2022-08-16T08:52:47.876Z,1.95
2022-08-16T08:55:10.724Z,2.20
2022-08-16T08:57:47.729Z,2.58
2022-08-16T09:00:15.854Z,2.00
2022-08-16T09:02:52.242Z,2.13
2022-08-16T09:05:20.306Z,2.35
2022-08-16T09:08:00.210Z,1.80
2022-08-16T09:10:29.422Z,2.50
2022-08-16T09:12:56.988Z,2.17
2022-08-16T09:15:24.093Z,2.33
2022-08-16T09:17:54.640Z,2.25
2022-08-16T09:20:23.734Z,2.15
2022-08-16T09:22:52.957Z,1.80
2022-08-16T09:25:26.349Z,2.40
2022-08-16T09:28:02.385Z,2.08
2022-08-16T09:30:34.612Z,2.35
2022-08-16T09:33:10.289Z,2.20
2022-08-16T09:35:38.779Z,2.08
2022-08-16T09:38:08.430Z,2.10
2022-08-16T09:40:42.695Z,2.03
2022-08-16T09:43:21.090Z,2.00
2022-08-16T09:45:58.300Z,2.75
2022-08-16T09:48:44.346Z,2.28
2022-08-16T09:51:13.945Z,2.25
2022-08-16T09:53:41.046Z,2.55
2022-08-16T09:56:13.824Z,2.28
2022-08-16T09:59:04.876Z,2.30
2022-08-16T10:01:31.882Z,1.98
2022-08-16T10:04:02.641Z,2.30
2022-08-16T10:06:40.833Z,2.03
2022-08-16T10:09:14.215Z,2.55
2022-08-16T10:12:19.487Z,2.42
2022-08-16T10:14:46.650Z,2.10
2022-08-16T10:17:13.472Z,2.03
2022-08-16T10:19:40.236Z,2.10
2022-08-16T10:22:07.054Z,2.53
2022-08-16T10:24:33.901Z,2.38
2022-08-16T10:27:18.754Z,2.60
2022-08-16T10:30:00.668Z,1.98
2022-08-16T10:32:30.398Z,2.40
2022-08-16T10:34:57.790Z,2.30
2022-08-16T10:37:35.668Z,2.40
2022-08-16T10:40:04.954Z,2.47
2022-08-16T10:42:31.831Z,2.28
2022-08-16T10:44:58.583Z,2.20
2022-08-16T10:47:26.283Z,2.10
2022-08-16T10:49:55.856Z,2.35
2022-08-16T10:52:24.351Z,2.00
2022-08-16T10:54:59.229Z,2.47
2022-08-16T10:57:28.046Z,2.42
2022-08-16T11:00:00.027Z,2.22
2022-08-16T11:02:59.421Z,2.15
2022-08-16T11:05:16.247Z,2.45
2022-08-16T11:07:53.645Z,2.33
2022-08-16T11:13:57.016Z,2.30
2022-08-16T11:19:06.334Z,2.25
2022-08-16T11:22:22.483Z,2.20
2022-08-16T11:24:42.544Z,2.50
2022-08-16T11:27:20.204Z,2.33
2022-08-16T11:29:49.400Z,2.20
2022-08-16T11:32:20.260Z,2.50
2022-08-16T11:35:11.265Z,2.35
2022-08-16T11:38:23.219Z,2.10
2022-08-16T11:40:24.610Z,2.30
2022-08-16T11:42:59.348Z,2.28
2022-08-16T11:45:26.151Z,2.40
2022-08-16T11:47:54.584Z,3.10
2022-08-16T11:50:21.905Z,2.42
2022-08-16T11:52:48.679Z,2.70
2022-08-16T11:55:15.437Z,2.20
2022-08-16T11:57:42.188Z,2.25
2022-08-16T12:00:33.855Z,2.30
2022-08-16T12:02:59.412Z,2.58
2022-08-16T12:05:27.130Z,2.30
2022-08-16T12:07:55.332Z,2.60
2022-08-16T12:10:23.413Z,2.70
2022-08-16T12:12:55.201Z,1.80
2022-08-16T12:15:26.489Z,2.30
2022-08-16T12:17:55.704Z,2.83
2022-08-16T12:20:30.167Z,2.33
2022-08-16T12:22:56.923Z,2.25
2022-08-16T12:25:27.830Z,2.83
2022-08-16T12:27:54.743Z,2.80
2022-08-16T12:30:32.179Z,2.40
2022-08-16T12:33:03.061Z,2.70
2022-08-16T12:35:30.532Z,2.20
2022-08-16T12:37:58.221Z,2.17
2022-08-16T12:40:32.409Z,2.53
2022-08-16T12:43:01.049Z,2.50
2022-08-16T12:45:34.091Z,2.50
2022-08-16T12:48:36.309Z,2.75
2022-08-16T12:51:13.366Z,2.40
2022-08-16T12:53:47.240Z,2.55
2022-08-16T12:56:14.245Z,2.30
2022-08-16T12:58:48.379Z,2.40
2022-08-16T13:01:22.750Z,2.30
2022-08-16T13:03:59.245Z,2.63
2022-08-16T13:06:33.403Z,2.92
2022-08-16T13:09:02.451Z,2.35
2022-08-16T13:11:35.624Z,2.42
2022-08-16T13:14:05.317Z,2.45
2022-08-16T13:16:32.180Z,2.50
2022-08-16T13:19:01.023Z,2.72
2022-08-16T13:21:27.908Z,2.22
2022-08-16T13:23:55.447Z,2.20
2022-08-16T13:26:23.815Z,2.60
2022-08-16T13:28:50.840Z,2.40
2022-08-16T13:31:17.643Z,2.38
2022-08-16T13:33:44.616Z,2.55
2022-08-16T13:36:21.273Z,2.67
2022-08-16T13:39:00.090Z,2.60
2022-08-16T13:41:29.986Z,2.72
2022-08-16T13:44:00.831Z,2.20
2022-08-16T13:46:32.363Z,2.40
2022-08-16T13:49:00.154Z,2.83
2022-08-16T13:51:29.178Z,2.67
2022-08-16T13:54:02.800Z,2.60
2022-08-16T13:59:05.720Z,2.35
2022-08-16T14:01:33.057Z,2.50
2022-08-16T14:04:03.577Z,2.40
2022-08-16T14:06:31.213Z,2.25
2022-08-16T14:09:06.162Z,2.35
2022-08-16T14:11:34.291Z,2.58
2022-08-16T14:14:01.798Z,2.60
2022-08-16T14:16:33.686Z,2.50
2022-08-16T14:19:02.247Z,2.67
2022-08-16T14:21:35.322Z,2.30
2022-08-16T14:24:08.141Z,2.40
2022-08-16T14:26:48.950Z,2.42
2022-08-16T14:31:49.540Z,2.43
2022-08-16T14:34:20.811Z,2.22
2022-08-16T14:36:52.125Z,2.40
2022-08-16T14:39:21.971Z,2.53
2022-08-16T14:41:48.791Z,2.22
2022-08-16T14:44:20.080Z,2.22
2022-08-16T14:46:47.008Z,2.40
2022-08-16T14:49:14.443Z,2.88
2022-08-16T14:51:46.017Z,2.47
2022-08-16T14:54:13.012Z,4.03
2022-08-16T14:56:46.963Z,2.50
2022-08-16T14:59:21.412Z,2.35
2022-08-16T15:01:58.943Z,2.20
2022-08-16T15:04:36.882Z,2.05
2022-08-16T15:07:14.969Z,2.38
2022-08-16T15:09:44.474Z,2.10
2022-08-16T15:12:33.334Z,2.20
2022-08-16T15:15:01.345Z,2.55
2022-08-16T15:17:33.911Z,2.53
2022-08-16T15:20:08.500Z,2.30
2022-08-16T15:22:37.988Z,2.80
2022-08-16T15:25:09.012Z,2.45
2022-08-16T15:27:36.838Z,2.00
2022-08-16T15:30:47.903Z,2.38
2022-08-16T15:32:56.337Z,2.30
2022-08-16T15:35:23.103Z,2.03
2022-08-16T15:37:54.472Z,2.50
2022-08-16T15:40:32.197Z,2.45
2022-08-16T15:43:02.539Z,2.35
2022-08-16T15:45:48.115Z,2.45
2022-08-16T15:50:57.631Z,2.50
2022-08-16T15:53:27.252Z,2.10
2022-08-16T15:55:55.422Z,2.00
2022-08-16T15:58:35.032Z,1.92
2022-08-16T16:01:05.719Z,2.45
2022-08-16T16:03:34.618Z,2.33
2022-08-16T16:06:02.688Z,2.35
2022-08-16T16:08:30.047Z,2.20
2022-08-16T16:11:03.421Z,2.38
2022-08-16T16:13:30.613Z,2.17
2022-08-16T16:15:58.393Z,2.20
2022-08-16T16:18:25.993Z,2.42
2022-08-16T16:20:55.075Z,2.20
2022-08-16T16:23:25.458Z,2.25
2022-08-16T16:25:56.889Z,2.63
2022-08-16T16:28:46.022Z,2.30
2022-08-16T16:31:14.989Z,2.42
2022-08-16T16:33:50.393Z,2.10
2022-08-16T16:36:19.286Z,2.50
2022-08-16T16:38:47.623Z,2.20
2022-08-16T16:41:16.475Z,2.88
2022-08-16T16:43:43.924Z,2.78
2022-08-16T16:46:40.574Z,2.60
2022-08-16T16:49:03.931Z,2.50
2022-08-16T16:51:31.342Z,2.45
2022-08-16T16:54:00.176Z,2.60
2022-08-16T16:56:34.367Z,2.30
2022-08-16T16:59:08.802Z,2.40
2022-08-16T17:02:00.269Z,2.35
2022-08-16T17:04:36.372Z,2.60
2022-08-16T17:07:03.435Z,3.03
2022-08-16T17:09:30.383Z,2.90
2022-08-16T17:11:58.388Z,2.47
2022-08-16T17:14:32.986Z,2.70
2022-08-16T17:17:04.032Z,3.10
2022-08-16T17:19:31.687Z,3.15
2022-08-16T17:22:01.102Z,2.67
2022-08-16T17:24:31.989Z,3.08
2022-08-16T17:27:07.538Z,2.53
2022-08-16T17:29:35.156Z,2.50
2022-08-16T17:32:33.884Z,2.65
2022-08-16T17:35:00.715Z,3.10
2022-08-16T17:37:34.041Z,2.72
2022-08-16T17:40:25.567Z,2.80
2022-08-16T17:42:59.388Z,2.60
2022-08-16T17:45:26.256Z,2.58
2022-08-16T17:47:53.043Z,2.38
2022-08-16T17:50:20.217Z,2.90
2022-08-16T17:52:53.990Z,2.70
2022-08-16T17:55:42.231Z,2.75
2022-08-16T17:58:22.490Z,2.60
2022-08-16T18:00:51.720Z,2.67
2022-08-16T18:04:02.577Z,2.63
2022-08-16T18:06:11.959Z,2.67
2022-08-16T18:08:39.001Z,2.67
2022-08-16T18:11:06.814Z,2.60
2022-08-16T18:13:34.753Z,2.95
2022-08-16T18:16:01.625Z,2.90
2022-08-16T18:18:28.491Z,2.40
2022-08-16T18:21:13.751Z,2.38
2022-08-16T18:23:40.518Z,2.83
2022-08-16T18:26:07.440Z,2.70
2022-08-16T18:28:38.829Z,3.05
2022-08-16T18:31:06.568Z,2.33
2022-08-16T18:33:33.703Z,2.63
2022-08-16T18:36:20.657Z,2.65
2022-08-16T18:38:51.186Z,2.70
2022-08-16T18:41:18.755Z,2.30
2022-08-16T18:44:22.549Z,2.65
2022-08-16T18:46:32.551Z,2.88
2022-08-16T18:48:59.434Z,2.40
2022-08-16T18:51:26.382Z,2.58
2022-08-16T18:53:53.594Z,2.60
2022-08-16T18:56:20.720Z,2.70
2022-08-16T18:58:47.478Z,2.88
2022-08-16T19:01:14.440Z,3.45
2022-08-16T19:03:41.237Z,3.10
2022-08-16T19:06:13.900Z,2.63
2022-08-16T19:08:42.040Z,2.55
2022-08-16T19:11:16.665Z,2.65
2022-08-16T19:13:46.410Z,2.90
2022-08-16T19:16:13.313Z,2.70
2022-08-16T19:18:40.223Z,2.58
2022-08-16T19:21:07.426Z,2.85
2022-08-16T19:23:35.824Z,2.53
2022-08-16T19:26:05.259Z,2.70
2022-08-16T19:28:49.360Z,2.60
2022-08-16T19:31:21.725Z,2.67
2022-08-16T19:33:54.223Z,2.53
2022-08-16T19:36:31.068Z,2.53
2022-08-16T19:39:05.403Z,2.60
2022-08-16T19:41:34.304Z,3.17
2022-08-16T19:44:01.067Z,2.30
2022-08-16T19:46:27.819Z,2.53
2022-08-16T19:48:54.584Z,2.60
2022-08-16T19:51:21.589Z,2.40
2022-08-16T19:53:48.429Z,2.38
2022-08-16T19:56:18.710Z,2.72
2022-08-16T19:59:08.902Z,2.20
2022-08-16T20:01:33.351Z,2.13
2022-08-16T20:04:00.312Z,2.80
2022-08-16T20:06:34.856Z,2.67
2022-08-16T20:09:05.623Z,2.72
2022-08-16T20:11:35.569Z,2.35
2022-08-16T20:14:02.772Z,2.58
2022-08-16T20:16:29.756Z,2.72
2022-08-16T20:18:56.497Z,2.47
2022-08-16T20:21:23.242Z,2.50
2022-08-16T20:23:50.242Z,2.35
2022-08-16T20:26:18.806Z,2.65
2022-08-16T20:28:54.130Z,2.60
2022-08-16T20:31:26.774Z,2.95
2022-08-16T20:33:53.877Z,2.80
2022-08-16T20:36:20.636Z,2.30
2022-08-16T20:38:48.411Z,2.53
2022-08-16T20:41:16.272Z,2.42
2022-08-16T20:43:43.453Z,2.00
2022-08-16T20:46:10.632Z,2.65
2022-08-16T20:48:37.427Z,2.50
2022-08-16T20:51:06.730Z,2.35
2022-08-16T20:53:33.984Z,2.30
2022-08-16T20:56:00.747Z,2.38
2022-08-16T20:58:27.661Z,2.25
2022-08-16T21:00:54.460Z,2.10
2022-08-16T21:03:21.413Z,2.47
2022-08-16T21:05:48.236Z,2.30
2022-08-16T21:08:52.468Z,2.00
2022-08-16T21:11:03.374Z,2.25
2022-08-16T21:13:30.924Z,2.30
2022-08-16T21:16:01.088Z,1.95
2022-08-16T21:18:27.945Z,1.90
2022-08-16T21:20:54.730Z,2.47
2022-08-16T21:23:21.538Z,1.90
2022-08-16T21:25:58.549Z,2.30
2022-08-16T21:28:39.044Z,2.67
2022-08-16T21:31:12.983Z,2.20
2022-08-16T21:33:40.009Z,2.20
2022-08-16T21:36:07.016Z,2.60
2022-08-16T21:38:33.823Z,2.45
2022-08-16T21:41:01.511Z,2.22
2022-08-16T21:43:32.018Z,2.20
2022-08-16T21:46:00.008Z,2.50
2022-08-16T21:48:35.860Z,2.50
2022-08-16T21:51:05.084Z,2.40
2022-08-16T21:53:31.956Z,2.47
2022-08-16T21:55:58.867Z,2.50
2022-08-16T21:58:25.679Z,2.60
2022-08-16T22:00:52.645Z,2.85
2022-08-16T22:03:19.423Z,2.80
2022-08-16T22:05:46.784Z,2.50
2022-08-16T22:08:34.173Z,2.42
2022-08-16T22:11:07.034Z,2.70
2022-08-16T22:13:35.155Z,2.20
2022-08-16T22:16:07.222Z,2.65
2022-08-16T22:18:33.950Z,2.20
2022-08-16T22:21:00.718Z,2.53
2022-08-16T22:23:27.455Z,2.47
2022-08-16T22:25:54.814Z,2.35
2022-08-16T22:28:22.006Z,2.50
2022-08-16T22:30:48.925Z,2.60
2022-08-16T22:33:17.752Z,2.40
2022-08-16T22:35:46.347Z,2.42
2022-08-16T22:38:54.214Z,2.72
2022-08-16T22:41:00.892Z,2.05
2022-08-16T22:43:27.642Z,2.55
2022-08-16T22:45:54.512Z,2.65
2022-08-16T22:48:22.494Z,2.55
2022-08-16T22:50:50.761Z,2.60
2022-08-16T22:53:18.525Z,2.20
2022-08-16T22:55:45.638Z,2.47
2022-08-16T22:58:13.737Z,2.28
2022-08-16T23:00:40.748Z,2.45
2022-08-16T23:03:09.427Z,2.70
2022-08-16T23:06:00.258Z,2.42
2022-08-16T23:08:38.613Z,2.63
2022-08-16T23:11:12.107Z,2.50
2022-08-16T23:13:50.719Z,2.40
2022-08-16T23:16:22.091Z,2.05
2022-08-16T23:18:49.470Z,2.38
2022-08-16T23:21:17.542Z,2.65
2022-08-16T23:23:46.498Z,2.60
2022-08-16T23:26:44.499Z,2.53
2022-08-16T23:29:04.342Z,2.35
2022-08-16T23:31:32.444Z,2.60
2022-08-16T23:33:59.480Z,2.70
2022-08-16T23:36:26.205Z,2.72
2022-08-16T23:38:52.958Z,2.80
2022-08-16T23:41:20.348Z,2.72
2022-08-16T23:43:47.106Z,2.70
2022-08-16T23:46:16.255Z,2.25
2022-08-16T23:49:58.371Z,2.58
2022-08-16T23:51:30.831Z,2.90
2022-08-16T23:53:57.582Z,2.63
2022-08-16T23:56:25.782Z,3.10
2022-08-16T23:59:02.130Z,2.58
